Terminal Aerodrome Forecast
Issued by NWS Charleston, SC

Current Version | Previous Version | Text Only | Print | Product List | Glossary On
Versions: 1 2 3 4 5 6 7 8 9 10 11 12 13 14 15 16
470
FTUS42 KCHS 101130
TAFSAV
TAF
KSAV 101130Z 1012/1112 27011KT P6SM SKC
     FM101500 28018G29KT P6SM SKC
     FM102300 26008KT P6SM SKC=

USA.gov is the U.S. government's official web portal to all federal, state and local government web resources and services.